createdAt,value
2022-11-26T00:00:29.258Z,100984.72
2022-11-26T00:02:57.310Z,100983.78
2022-11-26T00:05:25.840Z,100984.41
2022-11-26T00:07:57.102Z,100986.19
2022-11-26T00:10:29.046Z,100993.00
2022-11-26T00:12:57.931Z,100994.50
2022-11-26T00:15:27.256Z,101006.38
2022-11-26T00:17:55.575Z,101003.66
2022-11-26T00:20:25.736Z,101002.78
2022-11-26T00:22:55.452Z,101008.66
2022-11-26T00:25:28.113Z,101016.22
2022-11-26T00:27:59.056Z,101011.09
2022-11-26T00:30:29.554Z,101011.97
2022-11-26T00:32:57.463Z,101011.84
2022-11-26T00:35:25.104Z,101022.09
2022-11-26T00:37:56.220Z,101027.22
2022-11-26T00:40:27.498Z,101026.25
2022-11-26T00:43:01.625Z,101030.59
2022-11-26T00:45:32.006Z,101040.88
2022-11-26T00:48:01.552Z,101042.63
2022-11-26T00:50:34.887Z,101038.94
2022-11-26T00:53:02.555Z,101039.06
2022-11-26T00:55:35.221Z,101048.56
2022-11-26T00:58:03.122Z,101049.31
2022-11-26T01:00:33.213Z,101059.59
2022-11-26T01:03:01.765Z,101059.50
2022-11-26T01:05:33.370Z,101053.69
2022-11-26T01:08:08.081Z,101062.25
2022-11-26T01:10:37.068Z,101070.09
2022-11-26T01:13:04.748Z,101069.38
2022-11-26T01:15:32.379Z,101069.53
2022-11-26T01:18:00.052Z,101080.59
2022-11-26T01:20:29.929Z,101075.53
2022-11-26T01:22:59.460Z,101079.00
2022-11-26T01:25:28.473Z,101085.88
2022-11-26T01:27:57.418Z,101084.28
2022-11-26T01:30:27.206Z,101086.84
2022-11-26T01:32:54.902Z,101090.16
2022-11-26T01:35:23.206Z,101095.97
2022-11-26T01:37:50.961Z,101102.88
2022-11-26T01:40:32.132Z,101105.44
2022-11-26T01:43:07.372Z,101115.63
2022-11-26T01:45:35.094Z,101119.31
2022-11-26T01:48:03.005Z,101128.88
2022-11-26T01:50:53.592Z,101130.75
2022-11-26T01:53:38.821Z,101143.25
2022-11-26T01:56:14.542Z,101139.75
2022-11-26T01:58:47.338Z,101136.31
2022-11-26T02:01:15.084Z,101143.13
2022-11-26T02:03:50.836Z,101136.22
2022-11-26T02:06:23.362Z,101146.47
2022-11-26T02:08:50.977Z,101131.81
2022-11-26T02:11:20.998Z,101134.44
2022-11-26T02:13:53.772Z,101138.88
2022-11-26T02:16:35.359Z,101150.72
2022-11-26T02:19:22.506Z,101140.38
2022-11-26T02:21:57.921Z,101151.38
2022-11-26T02:24:39.897Z,101158.34
2022-11-26T02:27:28.726Z,101160.09
2022-11-26T02:30:12.114Z,101160.91
2022-11-26T02:32:57.379Z,101167.00
2022-11-26T02:35:33.631Z,101164.34
2022-11-26T02:38:06.079Z,101165.09
2022-11-26T02:40:34.026Z,101166.66
2022-11-26T02:43:01.775Z,101170.13
2022-11-26T02:45:35.026Z,101164.28
2022-11-26T02:48:07.540Z,101173.72
2022-11-26T02:54:41.657Z,101180.22
2022-11-26T02:57:14.545Z,101185.28
2022-11-26T02:59:43.189Z,101191.19
2022-11-26T03:02:16.993Z,101193.63
2022-11-26T03:04:48.543Z,101206.25
2022-11-26T03:07:18.712Z,101203.69
2022-11-26T03:09:52.070Z,101207.06
2022-11-26T03:12:19.701Z,101210.25
2022-11-26T03:14:47.464Z,101206.88
2022-11-26T03:17:16.818Z,101209.38
2022-11-26T03:19:44.574Z,101202.63
2022-11-26T03:22:12.786Z,101212.13
2022-11-26T03:24:40.968Z,101209.56
2022-11-26T03:27:08.771Z,101206.88
2022-11-26T03:29:36.348Z,101216.19
2022-11-26T03:32:04.180Z,101223.25
2022-11-26T03:34:33.257Z,101215.38
2022-11-26T03:37:00.884Z,101216.81
2022-11-26T03:39:28.531Z,101220.91
2022-11-26T03:41:56.159Z,101220.81
2022-11-26T03:44:23.757Z,101226.81
2022-11-26T03:46:51.405Z,101222.41
2022-11-26T03:49:19.010Z,101231.78
2022-11-26T03:51:47.935Z,101220.72
2022-11-26T03:54:15.640Z,101224.78
2022-11-26T03:56:43.296Z,101221.28
2022-11-26T03:59:10.874Z,101222.84
2022-11-26T04:01:39.604Z,101216.75
2022-11-26T04:04:07.210Z,101228.53
2022-11-26T04:06:34.861Z,101224.13
2022-11-26T04:09:04.043Z,101221.56
2022-11-26T04:11:31.765Z,101221.47
2022-11-26T04:13:59.404Z,101225.53
2022-11-26T04:16:27.176Z,101226.44
2022-11-26T04:18:55.772Z,101222.78
2022-11-26T04:21:23.434Z,101225.28
2022-11-26T04:23:51.043Z,101215.56
2022-11-26T04:26:20.064Z,101221.16
2022-11-26T04:28:47.689Z,101215.50
2022-11-26T04:31:15.420Z,101218.69
2022-11-26T04:33:43.160Z,101217.38
2022-11-26T04:36:11.100Z,101216.91
2022-11-26T04:38:39.005Z,101213.94
2022-11-26T04:41:06.905Z,101214.25
2022-11-26T04:43:35.885Z,101218.91
2022-11-26T04:46:03.512Z,101223.59
2022-11-26T04:48:31.193Z,101218.81
2022-11-26T04:50:58.922Z,101230.44
2022-11-26T04:53:26.612Z,101228.53
2022-11-26T04:55:54.243Z,101239.16
2022-11-26T04:58:22.106Z,101240.56
2022-11-26T05:00:51.701Z,101239.59
2022-11-26T05:03:19.935Z,101246.09
2022-11-26T05:05:47.986Z,101253.59
2022-11-26T05:08:15.756Z,101251.72
2022-11-26T05:10:43.396Z,101259.31
2022-11-26T05:13:11.128Z,101254.97
2022-11-26T05:15:39.071Z,101265.56
2022-11-26T05:18:08.052Z,101271.50
2022-11-26T05:20:35.634Z,101270.44
2022-11-26T05:23:03.276Z,101267.75
2022-11-26T05:25:30.854Z,101265.84
2022-11-26T05:27:58.402Z,101272.50
2022-11-26T05:30:26.028Z,101272.34
2022-11-26T05:32:53.715Z,101282.38
2022-11-26T05:35:22.772Z,101285.72
2022-11-26T05:37:50.440Z,101288.44
2022-11-26T05:40:18.062Z,101285.13
2022-11-26T05:42:45.693Z,101288.72
2022-11-26T05:45:13.304Z,101288.84
2022-11-26T05:47:40.950Z,101289.81
2022-11-26T05:50:10.096Z,101300.13
2022-11-26T05:52:39.070Z,101299.25
2022-11-26T05:55:08.195Z,101303.41
2022-11-26T05:57:35.780Z,101300.56
2022-11-26T06:00:03.492Z,101295.44
2022-11-26T06:02:39.795Z,101305.47
2022-11-26T06:05:09.073Z,101308.81
2022-11-26T06:07:40.511Z,101308.81
2022-11-26T06:10:13.101Z,101307.16
2022-11-26T06:12:40.701Z,101309.69
2022-11-26T06:15:09.102Z,101313.94
2022-11-26T06:17:36.816Z,101320.53
2022-11-26T06:20:05.380Z,101326.44
2022-11-26T06:22:37.400Z,101325.03
2022-11-26T06:25:05.560Z,101321.69
2022-11-26T06:27:35.524Z,101335.28
2022-11-26T06:30:04.567Z,101335.19
2022-11-26T06:32:33.081Z,101343.03
2022-11-26T06:35:00.796Z,101355.75
2022-11-26T06:37:28.457Z,101348.84
2022-11-26T06:39:56.039Z,101352.59
2022-11-26T06:42:23.623Z,101355.16
2022-11-26T06:44:57.027Z,101362.06
2022-11-26T06:47:27.440Z,101370.69
2022-11-26T06:49:55.075Z,101367.34
2022-11-26T06:52:22.659Z,101375.09
2022-11-26T06:54:51.551Z,101380.94
2022-11-26T06:57:19.144Z,101382.28
2022-11-26T06:59:46.756Z,101391.94
2022-11-26T07:02:15.750Z,101382.88
2022-11-26T07:04:43.632Z,101382.50
2022-11-26T07:07:11.329Z,101390.75
2022-11-26T07:09:39.850Z,101394.69
2022-11-26T07:12:07.661Z,101382.59
2022-11-26T07:14:35.367Z,101385.53
2022-11-26T07:17:02.989Z,101390.00
2022-11-26T07:19:32.098Z,101387.81
2022-11-26T07:21:59.756Z,101394.19
2022-11-26T07:24:27.681Z,101389.56
2022-11-26T07:26:56.116Z,101406.69
2022-11-26T07:29:23.744Z,101409.13
2022-11-26T07:31:51.434Z,101408.47
2022-11-26T07:34:19.075Z,101414.84
2022-11-26T07:36:48.080Z,101415.94
2022-11-26T07:39:15.682Z,101419.69
2022-11-26T07:41:43.264Z,101411.78
2022-11-26T07:44:13.417Z,101412.66
2022-11-26T07:46:41.554Z,101426.16
2022-11-26T07:49:09.293Z,101431.28
2022-11-26T07:51:39.239Z,101437.28
2022-11-26T07:54:09.561Z,101427.75
2022-11-26T07:56:37.579Z,101427.94
2022-11-26T07:59:05.796Z,101436.47
2022-11-26T08:01:34.025Z,101432.38
2022-11-26T08:04:05.213Z,101438.03
2022-11-26T08:06:33.091Z,101447.06
2022-11-26T08:09:02.167Z,101440.09
2022-11-26T08:11:32.762Z,101442.59
2022-11-26T08:14:02.324Z,101447.56
2022-11-26T08:16:30.396Z,101446.16
2022-11-26T08:18:59.500Z,101449.34
2022-11-26T08:21:27.660Z,101443.75
2022-11-26T08:23:55.921Z,101444.19
2022-11-26T08:26:32.959Z,101453.34
2022-11-26T08:29:05.156Z,101452.28
2022-11-26T08:36:05.985Z,101462.41
2022-11-26T08:47:00.415Z,101459.78
2022-11-26T08:49:28.266Z,101464.59
2022-11-26T08:51:56.649Z,101463.34
2022-11-26T08:54:25.031Z,101472.19
2022-11-26T08:56:52.674Z,101464.69
2022-11-26T08:59:22.840Z,101456.44
2022-11-26T09:01:50.778Z,101461.94
2022-11-26T09:04:19.784Z,101466.44
2022-11-26T09:06:47.364Z,101460.50
2022-11-26T09:09:15.446Z,101470.63
2022-11-26T09:11:46.065Z,101473.78
2022-11-26T09:14:14.542Z,101473.59
2022-11-26T09:16:42.301Z,101482.44
2022-11-26T09:19:11.718Z,101492.19
2022-11-26T09:21:40.645Z,101487.41
2022-11-26T09:24:08.865Z,101484.84
2022-11-26T09:26:36.566Z,101498.63
2022-11-26T09:29:05.145Z,101493.97
2022-11-26T09:31:33.261Z,101486.34
2022-11-26T09:34:01.978Z,101486.25
2022-11-26T09:36:29.625Z,101486.03
2022-11-26T09:38:59.679Z,101495.78
2022-11-26T09:41:40.510Z,101496.53
2022-11-26T09:44:25.280Z,101498.91
2022-11-26T09:47:12.220Z,101499.63
2022-11-26T09:49:45.533Z,101498.72
2022-11-26T09:52:17.961Z,101500.34
2022-11-26T09:54:49.167Z,101513.81
2022-11-26T09:57:24.185Z,101505.63
2022-11-26T09:59:54.196Z,101498.94
2022-11-26T10:02:22.019Z,101496.16
2022-11-26T10:04:49.810Z,101503.06
2022-11-26T10:07:31.432Z,101496.13
2022-11-26T10:10:09.171Z,101484.59
2022-11-26T10:13:17.192Z,101481.06
2022-11-26T10:15:50.369Z,101486.34
2022-11-26T10:18:29.519Z,101491.88
2022-11-26T10:21:08.871Z,101484.59
2022-11-26T10:23:45.275Z,101489.72
2022-11-26T10:26:28.367Z,101494.88
2022-11-26T10:29:07.329Z,101498.78
2022-11-26T10:31:35.399Z,101496.47
2022-11-26T10:34:09.761Z,101494.81
2022-11-26T10:36:39.666Z,101492.75
2022-11-26T10:39:08.600Z,101488.25
2022-11-26T10:41:38.737Z,101485.78
2022-11-26T10:44:28.849Z,101491.56
2022-11-26T10:46:56.580Z,101484.88
2022-11-26T10:49:25.936Z,101473.94
2022-11-26T10:51:57.280Z,101477.91
2022-11-26T10:54:29.019Z,101474.09
2022-11-26T10:57:04.904Z,101473.47
2022-11-26T10:59:37.913Z,101470.75
2022-11-26T11:02:30.397Z,101464.22
2022-11-26T11:05:02.157Z,101476.88
2022-11-26T11:07:35.108Z,101462.75
2022-11-26T11:10:05.224Z,101472.94
2022-11-26T11:12:34.247Z,101468.41
2022-11-26T11:15:20.508Z,101472.88
2022-11-26T11:17:54.565Z,101473.41
2022-11-26T11:20:30.127Z,101462.06
2022-11-26T11:23:01.080Z,101453.81
2022-11-26T11:25:31.429Z,101458.34
2022-11-26T11:28:11.957Z,101449.97
2022-11-26T11:30:42.103Z,101451.78
2022-11-26T11:33:28.829Z,101448.72
2022-11-26T11:36:05.670Z,101445.69
2022-11-26T11:38:35.494Z,101439.34
2022-11-26T11:41:12.509Z,101438.19
2022-11-26T11:43:41.651Z,101438.06
2022-11-26T11:46:25.192Z,101441.06
2022-11-26T11:49:01.175Z,101437.69
2022-11-26T11:51:39.250Z,101427.91
2022-11-26T11:54:16.530Z,101420.25
2022-11-26T11:56:50.533Z,101424.72
2022-11-26T11:59:47.834Z,101414.03
2022-11-26T12:02:51.526Z,101412.19
2022-11-26T12:05:43.699Z,101404.84
2022-11-26T12:08:24.815Z,101401.59
2022-11-26T12:11:05.270Z,101405.22
2022-11-26T12:13:39.973Z,101410.34
2022-11-26T12:16:13.102Z,101400.53
2022-11-26T12:18:47.540Z,101412.19
2022-11-26T12:21:17.384Z,101409.63
2022-11-26T12:23:50.617Z,101413.53
2022-11-26T12:26:23.087Z,101408.03
2022-11-26T12:28:56.080Z,101412.69
2022-11-26T12:31:30.625Z,101405.84
2022-11-26T12:34:08.528Z,101406.69
2022-11-26T12:36:45.441Z,101412.88
2022-11-26T12:39:19.382Z,101411.91
2022-11-26T12:41:56.499Z,101413.13
2022-11-26T12:44:29.894Z,101410.75
2022-11-26T12:47:05.526Z,101410.41
2022-11-26T12:49:39.389Z,101400.22
2022-11-26T12:52:25.714Z,101405.59
2022-11-26T12:55:02.355Z,101406.03
2022-11-26T12:57:35.073Z,101401.94
2022-11-26T13:00:06.967Z,101405.09
2022-11-26T13:02:39.059Z,101404.41
2022-11-26T13:05:07.769Z,101409.53
2022-11-26T13:07:50.031Z,101407.47
2022-11-26T13:10:27.765Z,101397.19
2022-11-26T13:13:03.905Z,101406.94
2022-11-26T13:15:38.592Z,101396.28
2022-11-26T13:18:14.441Z,101388.31
2022-11-26T13:20:59.770Z,101397.28
2022-11-26T13:23:42.106Z,101392.25
2022-11-26T13:26:27.048Z,101392.78
2022-11-26T13:29:23.716Z,101400.22
2022-11-26T13:32:12.720Z,101398.69
2022-11-26T13:34:59.841Z,101408.88
2022-11-26T13:37:47.946Z,101394.91
2022-11-26T13:40:48.262Z,101409.84
2022-11-26T13:43:37.822Z,101403.34
2022-11-26T13:46:17.599Z,101404.44
2022-11-26T13:48:57.057Z,101400.59
2022-11-26T13:51:32.687Z,101404.16
2022-11-26T13:54:07.718Z,101406.06
2022-11-26T13:56:37.401Z,101414.63
2022-11-26T13:59:16.152Z,101415.44
2022-11-26T14:01:44.009Z,101415.19
2022-11-26T14:04:14.071Z,101407.69
2022-11-26T14:07:20.196Z,101409.53
2022-11-26T14:09:50.974Z,101416.91
2022-11-26T14:12:19.773Z,101418.56
2022-11-26T14:14:48.950Z,101421.53
2022-11-26T14:17:19.787Z,101420.31
2022-11-26T14:20:01.604Z,101421.69
2022-11-26T14:22:33.547Z,101417.72
2022-11-26T14:25:02.963Z,101410.91
2022-11-26T14:27:33.378Z,101408.84
2022-11-26T14:30:14.680Z,101407.63
2022-11-26T14:32:49.086Z,101405.56
2022-11-26T14:35:21.932Z,101403.75
2022-11-26T14:37:56.620Z,101411.22
2022-11-26T14:40:26.713Z,101412.56
2022-11-26T14:43:15.716Z,101413.28
2022-11-26T14:45:44.421Z,101413.00
2022-11-26T14:48:27.734Z,101417.53
2022-11-26T14:50:57.501Z,101416.66
2022-11-26T14:53:29.107Z,101421.69
2022-11-26T14:55:57.938Z,101416.31
2022-11-26T14:58:32.823Z,101412.59
2022-11-26T15:01:07.341Z,101412.38
2022-11-26T15:03:35.335Z,101414.22
2022-11-26T15:06:03.273Z,101408.91
2022-11-26T15:08:32.198Z,101401.78
2022-11-26T15:11:03.357Z,101408.22
2022-11-26T15:13:37.440Z,101405.31
2022-11-26T15:16:27.556Z,101409.59
2022-11-26T15:18:56.549Z,101406.25
2022-11-26T15:21:26.099Z,101403.88
2022-11-26T15:23:59.114Z,101407.53
2022-11-26T15:26:32.689Z,101399.28
2022-11-26T15:29:00.168Z,101392.38
2022-11-26T15:31:40.558Z,101385.75
2022-11-26T15:34:12.632Z,101391.84
2022-11-26T15:36:40.452Z,101381.00
2022-11-26T15:39:25.334Z,101384.63
2022-11-26T15:41:55.178Z,101386.56
2022-11-26T15:44:26.854Z,101390.59
2022-11-26T15:46:57.168Z,101391.25
2022-11-26T15:49:28.203Z,101390.44
2022-11-26T15:52:00.809Z,101389.16
2022-11-26T15:54:49.625Z,101388.78
2022-11-26T15:57:25.411Z,101381.22
2022-11-26T15:59:58.382Z,101383.88
2022-11-26T16:02:28.167Z,101389.84
2022-11-26T16:04:57.916Z,101392.44
2022-11-26T16:07:28.104Z,101385.69
2022-11-26T16:10:21.358Z,101392.88
2022-11-26T16:13:08.874Z,101394.47
2022-11-26T16:15:37.466Z,101397.63
2022-11-26T16:18:14.805Z,101401.06
2022-11-26T16:20:43.162Z,101405.47
2022-11-26T16:23:21.437Z,101410.38
2022-11-26T16:26:08.993Z,101405.50
2022-11-26T16:28:37.042Z,101395.88
2022-11-26T16:31:04.800Z,101404.97
2022-11-26T16:33:32.497Z,101404.50
2022-11-26T16:36:01.639Z,101400.88
2022-11-26T16:38:30.122Z,101397.75
2022-11-26T16:40:57.711Z,101398.56
2022-11-26T16:43:26.763Z,101400.53
2022-11-26T16:45:56.158Z,101390.81
2022-11-26T16:48:28.521Z,101395.63
2022-11-26T16:50:57.131Z,101401.97
2022-11-26T16:53:24.981Z,101396.47
2022-11-26T16:55:54.827Z,101397.63
2022-11-26T16:58:29.234Z,101399.22
2022-11-26T17:00:57.738Z,101402.88
2022-11-26T17:03:27.496Z,101407.59
2022-11-26T17:05:57.506Z,101407.78
2022-11-26T17:08:25.188Z,101403.84
2022-11-26T17:10:54.810Z,101412.03
2022-11-26T17:13:22.624Z,101408.44
2022-11-26T17:15:52.400Z,101406.91
2022-11-26T17:18:23.399Z,101407.09
2022-11-26T17:20:52.720Z,101416.53
2022-11-26T17:23:20.359Z,101425.38
2022-11-26T17:25:52.179Z,101422.25
2022-11-26T17:28:20.964Z,101421.44
2022-11-26T17:30:48.656Z,101417.50
2022-11-26T17:33:17.736Z,101415.97
2022-11-26T17:35:45.639Z,101418.00
2022-11-26T17:38:16.137Z,101411.91
2022-11-26T17:40:44.784Z,101414.19
2022-11-26T17:43:12.767Z,101410.25
2022-11-26T17:45:42.876Z,101417.50
2022-11-26T17:48:13.846Z,101405.72
2022-11-26T17:50:43.242Z,101405.50
2022-11-26T17:53:10.913Z,101405.34
2022-11-26T17:55:39.466Z,101404.41
2022-11-26T17:58:07.268Z,101400.00
2022-11-26T18:00:34.942Z,101409.38
2022-11-26T18:03:02.688Z,101408.25
2022-11-26T18:05:30.630Z,101405.78
2022-11-26T18:07:59.613Z,101405.41
2022-11-26T18:10:27.417Z,101405.53
2022-11-26T18:12:55.255Z,101404.53
2022-11-26T18:15:24.927Z,101401.19
2022-11-26T18:17:54.651Z,101404.53
2022-11-26T18:20:24.954Z,101402.75
2022-11-26T18:22:53.510Z,101396.06
2022-11-26T18:25:22.613Z,101398.03
2022-11-26T18:27:50.288Z,101399.63
2022-11-26T18:30:18.730Z,101398.63
2022-11-26T18:32:46.474Z,101406.78
2022-11-26T18:35:14.495Z,101410.41
2022-11-26T18:37:42.601Z,101415.72
2022-11-26T18:40:14.421Z,101419.75
2022-11-26T18:42:43.554Z,101416.31
2022-11-26T18:45:14.682Z,101404.22
2022-11-26T18:47:42.335Z,101398.03
2022-11-26T18:50:10.579Z,101405.69
2022-11-26T18:52:38.785Z,101404.50
2022-11-26T18:55:08.011Z,101398.28
2022-11-26T18:57:35.642Z,101395.84
2022-11-26T19:00:06.833Z,101388.38
2022-11-26T19:02:34.851Z,101388.13
2022-11-26T19:05:03.538Z,101387.72
2022-11-26T19:07:33.015Z,101389.97
2022-11-26T19:10:00.806Z,101384.75
2022-11-26T19:12:28.390Z,101395.34
2022-11-26T19:14:56.021Z,101394.34
2022-11-26T19:17:24.954Z,101392.38
2022-11-26T19:19:52.550Z,101397.16
2022-11-26T19:22:20.178Z,101387.66
2022-11-26T19:24:49.353Z,101385.66
2022-11-26T19:27:16.978Z,101389.00
2022-11-26T19:29:44.582Z,101390.38
2022-11-26T19:32:12.305Z,101380.53
2022-11-26T19:34:41.336Z,101376.00
2022-11-26T19:37:08.941Z,101368.91
2022-11-26T19:39:37.358Z,101372.00
2022-11-26T19:42:05.413Z,101364.25
2022-11-26T19:44:35.208Z,101367.06
2022-11-26T19:47:03.200Z,101352.03
2022-11-26T19:49:30.883Z,101353.47
2022-11-26T19:51:59.925Z,101348.81
2022-11-26T19:54:27.938Z,101353.28
2022-11-26T19:56:55.583Z,101349.75
2022-11-26T19:59:23.217Z,101354.84
2022-11-26T20:01:50.964Z,101348.75
2022-11-26T20:04:19.492Z,101351.19
2022-11-26T20:06:47.400Z,101355.50
2022-11-26T20:09:16.372Z,101347.84
2022-11-26T20:11:44.506Z,101349.34
2022-11-26T20:14:14.416Z,101354.91
2022-11-26T20:16:44.128Z,101361.63
2022-11-26T20:19:13.170Z,101358.00
2022-11-26T20:21:40.990Z,101355.31
2022-11-26T20:24:12.415Z,101352.66
2022-11-26T20:26:43.259Z,101351.88
2022-11-26T20:29:13.572Z,101349.13
2022-11-26T20:31:44.497Z,101349.78
2022-11-26T20:34:14.125Z,101348.22
2022-11-26T20:36:41.725Z,101344.69
2022-11-26T20:39:13.496Z,101336.16
2022-11-26T20:41:42.816Z,101330.53
2022-11-26T20:44:10.999Z,101329.19
2022-11-26T20:46:38.951Z,101332.88
2022-11-26T20:49:07.349Z,101336.88
2022-11-26T20:51:35.212Z,101337.31
2022-11-26T20:54:03.267Z,101331.22
2022-11-26T20:56:31.130Z,101321.50
2022-11-26T20:59:00.060Z,101329.22
2022-11-26T21:01:29.323Z,101335.19
2022-11-26T21:03:57.385Z,101329.03
2022-11-26T21:06:30.183Z,101325.81
2022-11-26T21:09:00.332Z,101320.91
2022-11-26T21:11:28.161Z,101318.63
2022-11-26T21:13:55.722Z,101323.16
2022-11-26T21:16:24.660Z,101323.69
2022-11-26T21:18:54.003Z,101322.81
2022-11-26T21:21:21.795Z,101327.47
2022-11-26T21:23:49.386Z,101341.63
2022-11-26T21:26:18.818Z,101338.09
2022-11-26T21:28:51.131Z,101343.19
2022-11-26T21:31:19.399Z,101341.97
2022-11-26T21:33:54.055Z,101342.59
2022-11-26T21:36:21.712Z,101338.72
2022-11-26T21:38:50.120Z,101338.63
2022-11-26T21:41:19.789Z,101339.06
2022-11-26T21:43:49.437Z,101334.25
2022-11-26T21:46:19.650Z,101331.63
2022-11-26T21:48:48.719Z,101330.47
2022-11-26T21:51:17.854Z,101334.59
2022-11-26T21:53:45.825Z,101334.38
2022-11-26T21:56:17.116Z,101343.31
2022-11-26T21:58:45.066Z,101340.53
2022-11-26T22:01:13.975Z,101335.34
2022-11-26T22:03:43.133Z,101332.44
2022-11-26T22:06:12.764Z,101327.13
2022-11-26T22:08:40.738Z,101325.09
2022-11-26T22:11:10.018Z,101328.22
2022-11-26T22:13:37.836Z,101326.41
2022-11-26T22:16:06.480Z,101321.13
2022-11-26T22:18:36.463Z,101327.72
2022-11-26T22:21:04.385Z,101321.53
2022-11-26T22:23:33.410Z,101316.97
2022-11-26T22:26:01.062Z,101305.66
2022-11-26T22:28:30.332Z,101308.00
2022-11-26T22:30:58.200Z,101318.38
2022-11-26T22:33:25.896Z,101319.94
2022-11-26T22:35:53.470Z,101319.69
2022-11-26T22:38:21.054Z,101322.03
2022-11-26T22:40:50.066Z,101331.94
2022-11-26T22:43:17.749Z,101325.19
2022-11-26T22:45:45.429Z,101331.16
2022-11-26T22:48:13.165Z,101331.16
2022-11-26T22:50:40.728Z,101330.69
2022-11-26T22:53:08.384Z,101328.81
2022-11-26T22:55:36.080Z,101325.16
2022-11-26T22:58:05.033Z,101313.22
2022-11-26T23:00:47.494Z,101311.59
2022-11-26T23:03:16.284Z,101307.81
2022-11-26T23:05:44.351Z,101315.88
2022-11-26T23:08:12.623Z,101314.88
2022-11-26T23:10:40.829Z,101305.44
2022-11-26T23:13:10.591Z,101304.44
2022-11-26T23:15:44.527Z,101297.34
2022-11-26T23:18:13.649Z,101293.03
2022-11-26T23:20:42.317Z,101286.19
2022-11-26T23:23:10.653Z,101286.97
2022-11-26T23:25:39.800Z,101284.06
2022-11-26T23:28:08.000Z,101283.91
2022-11-26T23:30:37.122Z,101267.56
2022-11-26T23:33:04.806Z,101262.59
2022-11-26T23:35:32.456Z,101256.25
2022-11-26T23:38:00.067Z,101256.25
2022-11-26T23:40:27.705Z,101240.03
2022-11-26T23:42:55.515Z,101246.00
2022-11-26T23:45:23.071Z,101243.31
2022-11-26T23:47:52.097Z,101238.00
2022-11-26T23:50:19.836Z,101229.34
2022-11-26T23:52:47.436Z,101236.25
2022-11-26T23:55:16.418Z,101233.44
2022-11-26T23:57:44.081Z,101236.00
